createdAt,value
2022-10-21T00:00:40.086Z,13.90
2022-10-21T00:03:07.487Z,12.70
2022-10-21T00:05:34.507Z,13.80
2022-10-21T00:08:01.456Z,12.70
2022-10-21T00:10:28.623Z,14.00
2022-10-21T00:12:55.743Z,13.80
2022-10-21T00:15:22.652Z,14.00
2022-10-21T00:17:49.782Z,13.90
2022-10-21T00:20:17.447Z,14.20
2022-10-21T00:22:44.722Z,13.90
2022-10-21T00:25:11.739Z,13.70
2022-10-21T00:27:39.194Z,13.90
2022-10-21T00:30:08.602Z,13.80
2022-10-21T00:32:35.968Z,13.90
2022-10-21T00:35:05.319Z,13.80
2022-10-21T00:37:33.300Z,13.70
2022-10-21T00:40:00.230Z,13.90
2022-10-21T00:42:43.767Z,13.80
2022-10-21T00:45:26.433Z,13.80
2022-10-21T00:48:05.333Z,13.70
2022-10-21T00:51:08.392Z,13.80
2022-10-21T00:53:38.458Z,13.80
2022-10-21T00:56:15.603Z,12.60
2022-10-21T00:58:46.570Z,13.60
2022-10-21T01:01:17.810Z,13.80
2022-10-21T01:03:47.987Z,13.70
2022-10-21T01:06:16.661Z,13.80
2022-10-21T01:08:43.878Z,14.80
2022-10-21T01:11:18.375Z,13.60
2022-10-21T01:13:59.046Z,13.70
2022-10-21T01:16:36.801Z,14.40
2022-10-21T01:19:43.719Z,13.70
2022-10-21T01:22:36.813Z,13.70
2022-10-21T01:25:49.951Z,13.70
2022-10-21T01:28:22.597Z,13.70
2022-10-21T01:31:13.123Z,13.70
2022-10-21T01:33:51.653Z,13.60
2022-10-21T01:36:38.874Z,13.60
2022-10-21T01:39:25.597Z,13.70
2022-10-21T01:42:13.578Z,13.80
2022-10-21T01:44:54.853Z,13.70
2022-10-21T01:47:34.698Z,13.60
2022-10-21T01:50:08.614Z,13.70
2022-10-21T01:52:35.674Z,13.60
2022-10-21T01:55:08.193Z,13.70
2022-10-21T01:57:41.490Z,13.60
2022-10-21T02:00:09.924Z,13.70
2022-10-21T02:02:43.010Z,13.60
2022-10-21T02:05:20.190Z,13.80
2022-10-21T02:07:48.274Z,13.60
2022-10-21T02:10:16.379Z,13.60
2022-10-21T02:12:46.444Z,13.50
2022-10-21T02:15:15.828Z,13.60
2022-10-21T02:17:50.080Z,13.50
2022-10-21T02:20:18.174Z,13.70
2022-10-21T02:22:47.567Z,13.60
2022-10-21T02:25:23.174Z,13.50
2022-10-21T02:27:51.427Z,13.60
2022-10-21T02:30:18.969Z,13.50
2022-10-21T02:33:01.677Z,13.50
2022-10-21T02:36:03.338Z,13.50
2022-10-21T02:38:41.244Z,13.60
2022-10-21T02:41:12.006Z,13.40
2022-10-21T02:43:49.454Z,13.50
2022-10-21T02:46:16.623Z,13.60
2022-10-21T02:48:46.141Z,13.60
2022-10-21T02:51:14.036Z,13.60
2022-10-21T02:53:41.475Z,13.50
2022-10-21T02:56:09.343Z,13.60
2022-10-21T02:58:36.663Z,13.60
2022-10-21T03:01:03.770Z,13.40
2022-10-21T03:03:30.773Z,13.60
2022-10-21T03:05:58.236Z,13.50
2022-10-21T03:08:25.186Z,13.50
2022-10-21T03:10:53.505Z,13.50
2022-10-21T03:13:22.075Z,13.50
2022-10-21T03:15:50.200Z,13.50
2022-10-21T03:18:17.801Z,13.60
2022-10-21T03:20:45.078Z,13.40
2022-10-21T03:23:11.995Z,13.50
2022-10-21T03:25:38.995Z,13.40
2022-10-21T03:28:06.096Z,12.90
2022-10-21T03:30:33.217Z,13.30
2022-10-21T03:33:00.098Z,13.20
2022-10-21T03:35:27.690Z,13.40
2022-10-21T03:37:54.666Z,12.80
2022-10-21T03:40:23.723Z,13.00
2022-10-21T03:42:51.043Z,13.50
2022-10-21T03:45:18.029Z,13.30
2022-10-21T03:47:46.856Z,13.80
2022-10-21T03:50:16.533Z,13.30
2022-10-21T03:52:47.964Z,12.70
2022-10-21T03:55:14.874Z,13.30
2022-10-21T03:57:42.254Z,13.00
2022-10-21T04:00:09.962Z,13.50
2022-10-21T04:02:40.305Z,13.40
2022-10-21T04:05:08.423Z,13.00
2022-10-21T04:07:35.500Z,13.50
2022-10-21T04:10:02.525Z,13.50
2022-10-21T04:12:29.644Z,12.90
2022-10-21T04:14:56.556Z,13.60
2022-10-21T04:17:23.442Z,13.50
2022-10-21T04:19:50.365Z,13.50
2022-10-21T04:22:17.284Z,13.40
2022-10-21T04:24:44.160Z,13.10
2022-10-21T04:27:11.085Z,13.40
2022-10-21T04:29:37.981Z,14.10
2022-10-21T04:32:04.946Z,12.70
2022-10-21T04:34:31.905Z,14.10
2022-10-21T04:37:01.174Z,13.60
2022-10-21T04:39:31.166Z,13.50
2022-10-21T04:41:58.485Z,13.50
2022-10-21T04:44:25.499Z,13.60
2022-10-21T04:46:52.459Z,13.40
2022-10-21T04:49:19.698Z,13.90
2022-10-21T04:51:46.872Z,13.10
2022-10-21T04:54:14.209Z,13.50
2022-10-21T04:56:41.798Z,13.00
2022-10-21T04:59:09.359Z,13.40
2022-10-21T05:01:36.303Z,13.40
2022-10-21T05:04:03.319Z,13.00
2022-10-21T05:06:30.446Z,12.90
2022-10-21T05:08:57.658Z,13.50
2022-10-21T05:11:24.654Z,13.50
2022-10-21T05:13:51.591Z,13.20
2022-10-21T05:16:18.561Z,13.40
2022-10-21T05:18:45.544Z,13.40
2022-10-21T05:21:13.355Z,15.70
2022-10-21T05:23:40.289Z,13.40
2022-10-21T05:26:07.674Z,14.60
2022-10-21T05:28:34.684Z,14.70
2022-10-21T05:31:01.762Z,13.30
2022-10-21T05:33:28.948Z,13.30
2022-10-21T05:35:58.335Z,13.50
2022-10-21T05:38:25.480Z,13.40
2022-10-21T05:40:52.490Z,13.50
2022-10-21T05:43:19.462Z,13.50
2022-10-21T05:45:46.380Z,13.30
2022-10-21T05:48:17.759Z,13.60
2022-10-21T05:50:46.749Z,13.30
2022-10-21T05:53:14.515Z,13.50
2022-10-21T05:55:41.454Z,13.70
2022-10-21T05:58:08.561Z,14.80
2022-10-21T06:00:35.749Z,13.50
2022-10-21T06:03:02.801Z,13.40
2022-10-21T06:05:29.715Z,13.60
2022-10-21T06:07:56.624Z,13.60
2022-10-21T06:10:26.807Z,13.40
2022-10-21T06:12:56.070Z,13.60
2022-10-21T06:15:23.135Z,15.10
2022-10-21T06:17:51.700Z,13.40
2022-10-21T06:20:18.759Z,13.60
2022-10-21T06:22:45.711Z,13.40
2022-10-21T06:25:12.730Z,13.80
2022-10-21T06:27:40.003Z,13.60
2022-10-21T06:30:07.953Z,13.60
2022-10-21T06:32:35.675Z,13.60
2022-10-21T06:35:02.762Z,13.60
2022-10-21T06:37:30.005Z,13.30
2022-10-21T06:39:57.015Z,13.80
2022-10-21T06:42:24.298Z,13.90
2022-10-21T06:44:53.521Z,13.90
2022-10-21T06:47:22.437Z,13.80
2022-10-21T06:49:49.398Z,13.70
2022-10-21T06:52:40.790Z,13.90
2022-10-21T06:55:08.370Z,13.90
2022-10-21T06:57:36.256Z,13.80
2022-10-21T07:00:06.083Z,15.10
2022-10-21T07:02:33.177Z,13.90
2022-10-21T07:05:00.373Z,13.80
2022-10-21T07:07:27.288Z,13.70
2022-10-21T07:09:57.695Z,13.60
2022-10-21T07:12:27.057Z,14.00
2022-10-21T07:14:54.466Z,14.10
2022-10-21T07:17:21.896Z,13.90
2022-10-21T07:19:49.112Z,14.00
2022-10-21T07:22:17.818Z,14.20
2022-10-21T07:24:44.820Z,14.00
2022-10-21T07:27:11.835Z,14.20
2022-10-21T07:29:38.755Z,15.30
2022-10-21T07:32:05.895Z,14.10
2022-10-21T07:34:32.917Z,13.90
2022-10-21T07:36:59.915Z,13.90
2022-10-21T07:39:27.668Z,13.90
2022-10-21T07:41:58.141Z,14.10
2022-10-21T07:44:26.629Z,13.70
2022-10-21T07:46:54.938Z,13.80
2022-10-21T07:49:23.950Z,13.80
2022-10-21T07:51:50.905Z,13.80
2022-10-21T07:54:19.507Z,14.10
2022-10-21T07:56:50.500Z,14.00
2022-10-21T07:59:19.322Z,14.50
2022-10-21T08:04:19.372Z,14.40
2022-10-21T08:06:48.270Z,16.40
2022-10-21T08:09:16.715Z,14.20
2022-10-21T08:11:44.561Z,14.30
2022-10-21T08:14:12.724Z,14.10
2022-10-21T08:16:41.112Z,13.90
2022-10-21T08:19:09.390Z,14.00
2022-10-21T08:21:37.336Z,14.20
2022-10-21T08:24:05.375Z,13.60
2022-10-21T08:26:32.769Z,15.10
2022-10-21T08:28:59.950Z,13.80
2022-10-21T08:31:27.171Z,13.60
2022-10-21T08:33:55.438Z,13.30
2022-10-21T08:36:25.174Z,14.00
2022-10-21T08:38:53.196Z,14.10
2022-10-21T08:41:28.826Z,13.90
2022-10-21T08:44:26.483Z,14.70
2022-10-21T08:47:14.164Z,13.70
2022-10-21T08:49:58.509Z,14.20
2022-10-21T08:52:39.248Z,14.10
2022-10-21T08:55:36.358Z,14.30
2022-10-21T08:58:05.433Z,14.20
2022-10-21T09:00:40.023Z,14.10
2022-10-21T09:03:30.206Z,14.00
2022-10-21T09:06:21.859Z,13.90
2022-10-21T09:09:14.340Z,14.00
2022-10-21T09:12:06.233Z,14.40
2022-10-21T09:14:51.637Z,14.40
2022-10-21T09:17:58.343Z,14.40
2022-10-21T09:20:56.219Z,14.50
2022-10-21T09:23:58.634Z,14.60
2022-10-21T09:26:39.907Z,14.40
2022-10-21T09:29:31.885Z,14.20
2022-10-21T09:32:04.874Z,14.60
2022-10-21T09:34:47.019Z,14.60
2022-10-21T09:37:31.778Z,14.40
2022-10-21T09:40:28.291Z,14.40
2022-10-21T09:42:59.605Z,14.60
2022-10-21T09:45:36.207Z,14.70
2022-10-21T09:48:18.138Z,14.60
2022-10-21T09:51:10.476Z,14.80
2022-10-21T09:53:53.747Z,14.40
2022-10-21T09:56:49.987Z,14.60
2022-10-21T09:59:21.254Z,14.30
2022-10-21T10:01:49.201Z,14.50
2022-10-21T10:04:30.745Z,14.30
2022-10-21T10:07:37.074Z,14.40
2022-10-21T10:10:29.589Z,14.30
2022-10-21T10:12:58.620Z,14.50
2022-10-21T10:15:35.839Z,14.70
2022-10-21T10:18:03.411Z,14.60
2022-10-21T10:20:30.763Z,14.00
2022-10-21T10:23:00.451Z,14.30
2022-10-21T10:25:34.629Z,14.50
2022-10-21T10:28:20.037Z,14.80
2022-10-21T10:30:55.138Z,14.20
2022-10-21T10:33:34.921Z,14.20
2022-10-21T10:36:08.534Z,14.20
2022-10-21T10:38:54.059Z,14.30
2022-10-21T10:41:29.587Z,14.20
2022-10-21T10:43:57.661Z,14.60
2022-10-21T10:46:32.124Z,14.60
2022-10-21T10:49:25.038Z,14.50
2022-10-21T10:52:06.163Z,14.70
2022-10-21T10:54:34.024Z,14.80
2022-10-21T10:57:06.533Z,14.90
2022-10-21T10:59:43.933Z,15.10
2022-10-21T11:02:12.060Z,14.90
2022-10-21T11:05:09.227Z,14.30
2022-10-21T11:07:53.156Z,14.30
2022-10-21T11:10:46.076Z,14.90
2022-10-21T11:13:17.252Z,14.80
2022-10-21T11:16:21.797Z,14.70
2022-10-21T11:19:08.547Z,15.00
2022-10-21T11:21:55.875Z,14.60
2022-10-21T11:25:23.436Z,15.30
2022-10-21T11:28:19.678Z,15.60
2022-10-21T11:31:43.903Z,15.50
2022-10-21T11:34:35.330Z,15.40
2022-10-21T11:37:31.768Z,15.60
2022-10-21T11:40:33.041Z,15.90
2022-10-21T11:43:24.574Z,15.60
2022-10-21T11:46:52.257Z,15.90
2022-10-21T11:49:55.233Z,15.90
2022-10-21T11:53:12.328Z,16.10
2022-10-21T11:56:27.114Z,16.20
2022-10-21T11:59:19.561Z,16.10
2022-10-21T12:02:21.011Z,16.30
2022-10-21T12:05:03.989Z,16.40
2022-10-21T12:08:12.287Z,16.50
2022-10-21T12:10:52.363Z,16.30
2022-10-21T12:13:29.073Z,16.40
2022-10-21T12:16:01.428Z,16.20
2022-10-21T12:18:30.524Z,16.20
2022-10-21T12:20:58.976Z,16.10
2022-10-21T12:23:30.307Z,16.30
2022-10-21T12:26:24.289Z,16.10
2022-10-21T12:29:16.002Z,16.20
2022-10-21T12:31:56.265Z,16.10
2022-10-21T12:34:24.915Z,16.30
2022-10-21T12:36:54.640Z,16.20
2022-10-21T12:39:33.834Z,16.10
2022-10-21T12:42:28.989Z,16.30
2022-10-21T12:44:55.903Z,16.30
2022-10-21T12:47:32.550Z,17.40
2022-10-21T12:50:18.542Z,17.30
2022-10-21T12:52:47.343Z,16.40
2022-10-21T12:55:23.788Z,16.10
2022-10-21T12:58:01.035Z,16.20
2022-10-21T13:00:28.118Z,16.00
2022-10-21T13:03:10.858Z,16.10
2022-10-21T13:05:37.925Z,16.20
2022-10-21T13:08:23.291Z,16.40
2022-10-21T13:11:08.213Z,16.20
2022-10-21T13:13:38.368Z,16.20
2022-10-21T13:16:21.031Z,16.10
2022-10-21T13:18:53.687Z,16.20
2022-10-21T13:21:29.731Z,16.10
2022-10-21T13:24:11.383Z,16.20
2022-10-21T13:27:00.657Z,16.20
2022-10-21T13:29:44.414Z,16.10
2022-10-21T13:32:14.351Z,16.00
2022-10-21T13:34:59.520Z,17.20
2022-10-21T13:38:10.407Z,15.90
2022-10-21T13:40:46.641Z,16.10
2022-10-21T13:43:28.585Z,16.30
2022-10-21T13:46:16.669Z,15.80
2022-10-21T13:48:47.200Z,16.40
2022-10-21T13:51:30.683Z,16.00
2022-10-21T13:54:12.179Z,16.20
2022-10-21T13:56:40.347Z,16.20
2022-10-21T13:59:28.834Z,16.00
2022-10-21T14:01:59.164Z,16.10
2022-10-21T14:04:30.773Z,15.50
2022-10-21T14:07:06.267Z,16.80
2022-10-21T14:10:07.341Z,15.80
2022-10-21T14:12:41.555Z,15.70
2022-10-21T14:15:19.698Z,15.30
2022-10-21T14:17:58.282Z,15.90
2022-10-21T14:20:37.621Z,15.90
2022-10-21T14:23:09.106Z,15.70
2022-10-21T14:25:36.177Z,15.70
2022-10-21T14:28:04.822Z,15.40
2022-10-21T14:30:34.723Z,15.90
2022-10-21T14:33:06.244Z,15.90
2022-10-21T14:35:33.270Z,16.30
2022-10-21T14:38:03.885Z,15.30
2022-10-21T14:40:41.502Z,16.00
2022-10-21T14:43:26.219Z,16.60
2022-10-21T14:45:54.324Z,15.80
2022-10-21T14:48:32.908Z,15.80
2022-10-21T14:51:11.221Z,15.20
2022-10-21T14:53:47.967Z,15.60
2022-10-21T14:56:28.913Z,15.70
2022-10-21T14:58:59.275Z,15.70
2022-10-21T15:01:27.035Z,15.70
2022-10-21T15:04:01.707Z,15.80
2022-10-21T15:06:35.344Z,15.80
2022-10-21T15:09:10.231Z,15.70
2022-10-21T15:11:42.183Z,15.80
2022-10-21T15:14:15.041Z,15.70
2022-10-21T15:16:52.833Z,15.90
2022-10-21T15:19:37.369Z,16.90
2022-10-21T15:22:06.108Z,15.70
2022-10-21T15:24:45.493Z,16.20
2022-10-21T15:27:19.715Z,15.80
2022-10-21T15:29:48.148Z,15.90
2022-10-21T15:32:19.331Z,15.70
2022-10-21T15:34:50.146Z,16.40
2022-10-21T15:37:17.243Z,15.90
2022-10-21T15:39:45.523Z,15.70
2022-10-21T15:42:17.505Z,15.60
2022-10-21T15:44:48.664Z,15.60
2022-10-21T15:47:15.697Z,15.60
2022-10-21T15:49:45.236Z,15.70
2022-10-21T15:52:13.816Z,15.30
2022-10-21T15:54:41.487Z,14.70
2022-10-21T15:57:22.057Z,15.50
2022-10-21T15:59:49.057Z,15.70
2022-10-21T16:02:17.940Z,15.80
2022-10-21T16:04:45.710Z,14.80
2022-10-21T16:07:32.579Z,15.60
2022-10-21T16:10:00.268Z,15.70
2022-10-21T16:12:27.392Z,15.40
2022-10-21T16:14:54.451Z,15.70
2022-10-21T16:17:24.204Z,15.80
2022-10-21T16:19:51.223Z,15.70
2022-10-21T16:22:22.664Z,14.40
2022-10-21T16:24:49.861Z,15.90
2022-10-21T16:27:30.944Z,15.60
2022-10-21T16:29:58.519Z,15.70
2022-10-21T16:32:25.441Z,15.70
2022-10-21T16:34:52.506Z,15.60
2022-10-21T16:37:27.868Z,15.30
2022-10-21T16:39:54.899Z,15.60
2022-10-21T16:42:22.061Z,15.70
2022-10-21T16:44:49.923Z,16.30
2022-10-21T16:47:22.466Z,15.10
2022-10-21T16:49:49.585Z,15.60
2022-10-21T16:52:17.168Z,15.50
2022-10-21T16:54:47.882Z,15.50
2022-10-21T16:57:15.903Z,15.80
2022-10-21T16:59:42.801Z,15.60
2022-10-21T17:02:17.939Z,15.80
2022-10-21T17:04:45.660Z,15.30
2022-10-21T17:07:13.144Z,15.70
2022-10-21T17:09:40.223Z,18.20
2022-10-21T17:12:07.792Z,15.60
2022-10-21T17:17:06.771Z,15.80
2022-10-21T17:19:43.886Z,15.60
2022-10-21T17:22:16.962Z,15.60
2022-10-21T17:24:45.449Z,14.40
2022-10-21T17:27:15.863Z,15.50
2022-10-21T17:29:45.978Z,16.30
2022-10-21T17:32:13.213Z,15.50
2022-10-21T17:34:41.045Z,15.70
2022-10-21T17:37:10.390Z,15.70
2022-10-21T17:39:37.635Z,15.80
2022-10-21T17:42:04.963Z,15.60
2022-10-21T17:44:32.328Z,15.70
2022-10-21T17:46:59.418Z,15.80
2022-10-21T17:49:27.003Z,15.60
2022-10-21T17:51:54.017Z,16.00
2022-10-21T17:54:24.681Z,15.70
2022-10-21T17:56:56.610Z,15.30
2022-10-21T17:59:23.741Z,15.60
2022-10-21T18:01:50.728Z,17.90
2022-10-21T18:04:17.754Z,15.40
2022-10-21T18:06:45.045Z,15.70
2022-10-21T18:09:12.175Z,15.50
2022-10-21T18:11:39.251Z,15.30
2022-10-21T18:14:06.327Z,14.60
2022-10-21T18:16:34.824Z,15.50
2022-10-21T18:19:03.073Z,15.50
2022-10-21T18:21:30.902Z,15.50
2022-10-21T18:23:58.286Z,16.90
2022-10-21T18:26:28.783Z,16.60
2022-10-21T18:28:59.277Z,15.60
2022-10-21T18:31:31.329Z,15.20
2022-10-21T18:34:00.703Z,15.30
2022-10-21T18:36:27.960Z,14.80
2022-10-21T18:38:57.020Z,15.50
2022-10-21T18:41:24.468Z,15.20
2022-10-21T18:44:04.865Z,15.10
2022-10-21T18:46:32.257Z,15.10
2022-10-21T18:48:59.344Z,16.10
2022-10-21T18:51:26.384Z,15.10
2022-10-21T18:53:53.557Z,15.10
2022-10-21T18:56:23.466Z,15.00
2022-10-21T18:58:51.031Z,14.50
2022-10-21T19:01:20.832Z,14.60
2022-10-21T19:03:50.754Z,15.40
2022-10-21T19:06:42.981Z,15.40
2022-10-21T19:09:18.168Z,15.30
2022-10-21T19:11:47.147Z,15.60
2022-10-21T19:14:15.865Z,17.20
2022-10-21T19:16:45.122Z,14.70
2022-10-21T19:19:14.115Z,15.50
2022-10-21T19:21:41.089Z,15.60
2022-10-21T19:24:09.715Z,16.00
2022-10-21T19:26:40.302Z,15.30
2022-10-21T19:29:19.675Z,15.60
2022-10-21T19:34:23.018Z,15.70
2022-10-21T19:36:50.449Z,16.20
2022-10-21T19:39:17.587Z,15.60
2022-10-21T19:41:44.604Z,16.60
2022-10-21T19:44:11.940Z,15.50
2022-10-21T19:46:39.520Z,15.50
2022-10-21T19:49:09.687Z,15.30
2022-10-21T19:51:38.224Z,15.00
2022-10-21T19:54:07.585Z,15.00
2022-10-21T19:56:35.193Z,15.60
2022-10-21T19:59:03.700Z,14.90
2022-10-21T20:01:32.688Z,14.50
2022-10-21T20:04:01.926Z,14.00
2022-10-21T20:06:35.628Z,14.70
2022-10-21T20:09:15.182Z,14.80
2022-10-21T20:11:42.711Z,14.90
2022-10-21T20:14:13.193Z,16.00
2022-10-21T20:16:44.326Z,14.90
2022-10-21T20:19:15.370Z,14.70
2022-10-21T20:21:43.406Z,14.80
2022-10-21T20:24:14.734Z,15.40
2022-10-21T20:26:42.997Z,14.50
2022-10-21T20:29:11.160Z,15.00
2022-10-21T20:31:38.237Z,15.00
2022-10-21T20:34:05.244Z,14.90
2022-10-21T20:36:33.454Z,14.70
2022-10-21T20:39:02.973Z,14.80
2022-10-21T20:41:37.328Z,14.80
2022-10-21T20:44:08.830Z,15.80
2022-10-21T20:46:36.207Z,14.90
2022-10-21T20:49:07.211Z,14.70
2022-10-21T20:51:36.417Z,14.60
2022-10-21T20:54:07.987Z,14.90
2022-10-21T20:56:38.880Z,14.80
2022-10-21T20:59:08.801Z,15.50
2022-10-21T21:01:42.817Z,14.80
2022-10-21T21:04:13.338Z,14.60
2022-10-21T21:06:47.527Z,14.70
2022-10-21T21:12:04.655Z,14.70
2022-10-21T21:14:32.170Z,14.20
2022-10-21T21:16:59.366Z,14.50
2022-10-21T21:19:26.508Z,15.00
2022-10-21T21:21:53.957Z,14.50
2022-10-21T21:24:21.413Z,14.50
2022-10-21T21:26:48.512Z,14.40
2022-10-21T21:29:15.511Z,14.70
2022-10-21T21:31:44.167Z,14.80
2022-10-21T21:34:11.205Z,14.60
2022-10-21T21:36:38.326Z,14.60
2022-10-21T21:39:06.774Z,14.60
2022-10-21T21:41:34.967Z,14.70
2022-10-21T21:44:02.576Z,14.70
2022-10-21T21:46:29.563Z,14.60
2022-10-21T21:49:04.639Z,14.50
2022-10-21T21:51:34.968Z,15.20
2022-10-21T21:54:02.285Z,14.60
2022-10-21T21:56:29.442Z,14.80
2022-10-21T21:58:57.952Z,14.70
2022-10-21T22:01:29.779Z,14.50
2022-10-21T22:03:57.984Z,14.70
2022-10-21T22:06:28.752Z,14.60
2022-10-21T22:08:56.458Z,14.40
2022-10-21T22:11:27.906Z,14.50
2022-10-21T22:13:54.909Z,14.60
2022-10-21T22:16:24.263Z,14.40
2022-10-21T22:18:51.810Z,14.50
2022-10-21T22:21:19.251Z,14.40
2022-10-21T22:23:48.068Z,14.40
2022-10-21T22:26:17.043Z,14.40
2022-10-21T22:28:44.689Z,14.10
2022-10-21T22:31:16.166Z,14.40
2022-10-21T22:36:16.818Z,14.30
2022-10-21T22:38:45.186Z,14.30
2022-10-21T22:41:12.981Z,14.30
2022-10-21T22:43:40.744Z,14.40
2022-10-21T22:46:29.245Z,14.30
2022-10-21T22:48:54.981Z,14.50
2022-10-21T22:51:21.956Z,14.30
2022-10-21T22:53:53.585Z,14.30
2022-10-21T22:56:25.848Z,14.30
2022-10-21T22:58:52.857Z,14.20
2022-10-21T23:01:19.937Z,14.30
2022-10-21T23:03:46.919Z,14.30
2022-10-21T23:06:14.511Z,14.20
2022-10-21T23:08:41.745Z,14.20
2022-10-21T23:11:08.783Z,14.20
2022-10-21T23:13:35.748Z,14.10
2022-10-21T23:16:02.739Z,14.20
2022-10-21T23:18:29.751Z,14.00
2022-10-21T23:20:56.734Z,14.00
2022-10-21T23:23:23.777Z,14.00
2022-10-21T23:25:50.758Z,14.00
2022-10-21T23:30:45.752Z,14.00
2022-10-21T23:33:12.742Z,14.00
2022-10-21T23:35:39.809Z,13.90
2022-10-21T23:38:07.094Z,13.90
2022-10-21T23:40:34.509Z,13.80
2022-10-21T23:43:01.495Z,13.80
2022-10-21T23:45:28.545Z,13.70
2022-10-21T23:47:55.543Z,14.00
2022-10-21T23:50:22.593Z,13.50
2022-10-21T23:52:49.709Z,13.60
2022-10-21T23:55:16.825Z,13.70
2022-10-21T23:57:44.069Z,13.70
